Time;durP1;ratioP1;P1;durP2;ratioP2;P2;SDS_P1;SDS_P2;PMS_P1;PMS_P2;Temp;Humidity;BMP_temperature;BMP_pressure;BME280_temperature;BME280_humidity;BME280_pressure;Samples;Min_cycle;Max_cycle;Signal;HPM_P1;HPM_P2
2022/04/29 00:00:30;;;;;;;5.75;2.17;;;17.40;76.40;;;;;;5121773;27;20039;-65
2022/04/29 00:02:56;;;;;;;6.45;2.22;;;17.40;79.30;;;;;;5136518;27;20491;-67
2022/04/29 00:05:22;;;;;;;9.70;2.55;;;17.40;79.00;;;;;;5126325;27;20036;-68
2022/04/29 00:07:47;;;;;;;6.30;1.95;;;17.30;79.00;;;;;;5121865;27;20051;-67
2022/04/29 00:10:15;;;;;;;6.55;2.38;;;17.50;79.10;;;;;;5100253;27;20039;-67
2022/04/29 00:12:41;;;;;;;4.45;2.00;;;17.30;78.40;;;;;;5100713;27;20082;-63
2022/04/29 00:15:08;;;;;;;6.30;2.28;;;17.20;76.20;;;;;;5080618;28;20040;-67
2022/04/29 00:17:34;;;;;;;5.70;2.30;;;;;;;;;;5116211;28;20109;-63
2022/04/29 00:20:00;;;;;;;6.10;2.50;;;17.20;79.00;;;;;;5116139;27;20082;-63
2022/04/29 00:22:26;;;;;;;5.38;2.20;;;17.30;78.90;;;;;;5125746;27;20062;-63
2022/04/29 00:24:51;;;;;;;4.72;1.90;;;17.10;78.80;;;;;;5117702;27;20055;-63
2022/04/29 00:27:17;;;;;;;5.45;2.20;;;17.20;79.00;;;;;;5117011;27;20043;-68
2022/04/29 00:29:43;;;;;;;8.48;2.15;;;17.30;78.90;;;;;;5130478;27;20115;-65
2022/04/29 00:32:08;;;;;;;6.72;2.08;;;17.20;76.10;;;;;;5128195;27;20035;-64
2022/04/29 00:34:34;;;;;;;4.55;1.70;;;17.60;79.20;;;;;;5135842;27;20404;-68
2022/04/29 00:37:00;;;;;;;6.32;2.00;;;17.50;76.30;;;;;;5117906;27;20096;-63
2022/04/29 00:39:25;;;;;;;5.22;2.20;;;17.40;76.30;;;;;;5095677;28;20055;-66
2022/04/29 00:41:51;;;;;;;10.10;2.25;;;17.30;78.90;;;;;;5097798;28;20071;-67
2022/04/29 00:44:17;;;;;;;5.43;2.10;;;17.10;76.20;;;;;;5096885;28;20042;-63
2022/04/29 00:46:45;;;;;;;5.72;2.13;;;17.30;79.00;;;;;;5097383;28;20108;-64
2022/04/29 00:49:14;;;;;;;7.50;2.45;;;17.40;79.00;;;;;;5097742;27;20050;-69
2022/04/29 00:51:40;;;;;;;5.78;1.88;;;;;;;;;;5135176;27;20066;-65
2022/04/29 00:54:12;;;;;;;7.00;2.60;;;17.20;79.00;;;;;;5135093;27;20049;-63
2022/04/29 00:56:40;;;;;;;6.07;2.45;;;17.30;79.10;;;;;;5116482;27;20073;-64
2022/04/29 00:59:40;;;;;;;5.28;2.17;;;17.50;79.10;;;;;;5106184;28;20043;-63
2022/04/29 01:02:08;;;;;;;7.15;2.10;;;17.50;75.90;;;;;;5116027;27;20065;-63
2022/04/29 01:04:38;;;;;;;6.78;2.33;;;17.40;78.90;;;;;;5116400;27;20089;-68
2022/04/29 01:07:03;;;;;;;4.63;1.90;;;17.10;78.80;;;;;;5087473;27;20075;-68
2022/04/29 01:09:29;;;;;;;5.07;2.28;;;17.20;76.00;;;;;;5135414;27;20141;-66
2022/04/29 01:11:55;;;;;;;4.43;2.20;;;17.30;79.20;;;;;;5135992;27;20085;-64
2022/04/29 01:14:21;;;;;;;5.18;2.22;;;17.20;78.90;;;;;;5135385;27;20126;-65
2022/04/29 01:16:47;;;;;;;6.57;2.60;;;17.50;79.00;;;;;;5097236;27;20043;-63
2022/04/29 01:19:13;;;;;;;4.93;2.00;;;17.40;78.90;;;;;;5118084;27;20078;-63
2022/04/29 01:21:39;;;;;;;6.18;1.90;;;17.10;78.70;;;;;;5132090;27;20085;-63
2022/04/29 01:24:07;;;;;;;5.22;2.28;;;17.20;76.10;;;;;;5108129;27;20135;-63
2022/04/29 01:26:34;;;;;;;7.55;2.40;;;17.00;78.80;;;;;;5117521;27;20051;-62
2022/04/29 01:29:00;;;;;;;4.35;2.03;;;17.20;76.10;;;;;;5120548;27;20039;-64
2022/04/29 01:31:27;;;;;;;7.93;2.50;;;;;;;;;;5096288;28;20108;-63
2022/04/29 01:33:53;;;;;;;7.25;2.30;;;16.90;78.90;;;;;;5097997;27;20094;-63
2022/04/29 01:36:18;;;;;;;5.35;2.17;;;17.10;76.10;;;;;;5078855;28;20075;-63
2022/04/29 01:38:46;;;;;;;6.05;2.40;;;17.30;78.90;;;;;;5101098;28;20488;-63
2022/04/29 01:41:13;;;;;;;4.65;2.15;;;16.90;76.00;;;;;;5113743;28;20404;-62
2022/04/29 01:43:38;;;;;;;4.80;2.08;;;17.10;78.80;;;;;;5114934;28;20039;-63
2022/04/29 01:46:04;;;;;;;4.53;2.05;;;16.90;78.90;;;;;;5114352;28;20043;-63
2022/04/29 01:48:30;;;;;;;5.13;2.10;;;17.00;78.70;;;;;;5117469;27;20034;-62
2022/04/29 01:50:56;;;;;;;5.65;1.88;;;17.10;78.90;;;;;;5116040;27;20054;-63
2022/04/29 01:53:22;;;;;;;4.30;2.10;;;17.30;79.20;;;;;;5099606;28;20043;-63
2022/04/29 01:55:47;;;;;;;6.20;2.25;;;17.10;78.90;;;;;;5113814;28;20134;-63
2022/04/29 01:58:13;;;;;;;5.90;2.53;;;17.30;79.30;;;;;;5089892;28;20096;-63
2022/04/29 02:00:39;;;;;;;5.25;2.28;;;17.00;78.80;;;;;;5118627;27;20047;-62
2022/04/29 02:03:05;;;;;;;4.28;2.08;;;17.00;78.80;;;;;;5134664;27;20031;-62
2022/04/29 02:05:31;;;;;;;6.22;2.30;;;16.90;76.10;;;;;;5114277;28;20556;-63
2022/04/29 02:08:00;;;;;;;5.03;2.60;;;17.00;78.80;;;;;;5115868;28;20039;-63
2022/04/29 02:10:26;;;;;;;5.50;2.38;;;17.10;78.80;;;;;;5112332;28;20050;-63
2022/04/29 02:12:52;;;;;;;3.85;2.17;;;16.90;79.00;;;;;;5116077;28;20478;-62
2022/04/29 02:15:19;;;;;;;4.03;1.80;;;17.20;78.90;;;;;;5094904;28;20050;-68
2022/04/29 02:17:46;;;;;;;6.55;2.20;;;17.10;79.00;;;;;;5096271;28;20048;-68
2022/04/29 02:20:11;;;;;;;5.22;2.20;;;17.00;78.70;;;;;;5079398;28;20466;-63
2022/04/29 02:22:37;;;;;;;6.15;2.13;;;17.10;78.80;;;;;;5045441;28;20048;-62
2022/04/29 02:25:04;;;;;;;6.55;2.20;;;17.00;76.10;;;;;;5095469;28;20055;-62
2022/04/29 02:27:29;;;;;;;5.18;2.15;;;16.80;78.70;;;;;;5095365;28;20055;-63
2022/04/29 02:29:55;;;;;;;7.82;2.17;;;;;;;;;;5125123;28;20047;-67
2022/04/29 02:32:21;;;;;;;6.00;2.20;;;17.30;78.80;;;;;;5095651;28;20116;-68
2022/04/29 02:34:47;;;;;;;6.55;2.13;;;17.20;79.00;;;;;;5113530;28;20086;-66
2022/04/29 02:37:13;;;;;;;4.97;1.92;;;17.00;76.00;;;;;;5078582;28;20105;-66
2022/04/29 02:39:38;;;;;;;6.80;2.20;;;17.20;78.90;;;;;;5098027;28;20054;-69
2022/04/29 02:42:07;;;;;;;5.18;2.38;;;;;;;;;;5107645;28;20131;-62
2022/04/29 02:44:33;;;;;;;6.40;2.60;;;;;;;;;;5134271;28;20050;-68
2022/04/29 02:47:08;;;;;;;5.60;2.35;;;16.80;76.10;;;;;;5121548;28;20055;-66
2022/04/29 02:49:39;;;;;;;6.55;1.98;;;17.00;78.80;;;;;;5098015;28;20127;-67
2022/04/29 02:52:09;;;;;;;7.13;2.40;;;17.10;78.90;;;;;;5098942;27;20492;-67
2022/04/29 02:54:35;;;;;;;7.13;2.15;;;;;;;;;;5099122;28;20043;-67
2022/04/29 02:57:01;;;;;;;5.32;2.50;;;17.00;79.00;;;;;;5117245;28;20097;-67
2022/04/29 02:59:27;;;;;;;5.25;2.15;;;17.00;76.10;;;;;;5081996;28;20055;-67
2022/04/29 03:01:53;;;;;;;7.30;2.40;;;;;;;;;;5117520;28;20032;-67
2022/04/29 03:04:18;;;;;;;6.45;2.20;;;17.00;76.10;;;;;;5100033;28;20072;-69
2022/04/29 03:06:44;;;;;;;4.95;2.20;;;17.20;79.00;;;;;;5081926;28;20048;-66
2022/04/29 03:09:10;;;;;;;5.15;2.53;;;16.90;78.60;;;;;;5130588;27;20088;-66
2022/04/29 03:11:36;;;;;;;6.53;2.25;;;17.10;78.70;;;;;;5101566;27;20114;-68
2022/04/29 03:14:02;;;;;;;5.78;1.92;;;17.20;78.80;;;;;;5109637;28;20492;-67
2022/04/29 03:16:28;;;;;;;4.88;2.20;;;17.20;76.10;;;;;;5109966;27;20092;-67
2022/04/29 03:18:53;;;;;;;4.80;2.10;;;17.00;75.90;;;;;;5122823;27;20141;-63
2022/04/29 03:21:20;;;;;;;6.63;2.25;;;;;;;;;;5128482;27;20126;-63
2022/04/29 03:23:47;;;;;;;7.40;2.45;;;16.90;78.60;;;;;;5096065;27;20150;-64
2022/04/29 03:26:13;;;;;;;6.15;2.33;;;17.30;78.90;;;;;;5116994;28;20044;-63
2022/04/29 03:28:39;;;;;;;6.90;2.30;;;17.10;78.80;;;;;;5098643;28;20495;-67
2022/04/29 03:31:05;;;;;;;7.30;2.25;;;17.20;76.20;;;;;;5081880;28;20145;-63
2022/04/29 03:33:31;;;;;;;4.80;2.00;;;16.90;78.70;;;;;;5102161;27;20050;-64
2022/04/29 03:35:57;;;;;;;6.65;2.65;;;17.10;76.20;;;;;;5083468;28;20485;-63
2022/04/29 03:38:23;;;;;;;4.88;2.25;;;16.90;77.40;;;;;;5116887;28;20088;-63
2022/04/29 03:40:50;;;;;;;5.18;2.08;;;17.00;79.40;;;;;;5115210;27;20090;-62
2022/04/29 03:43:16;;;;;;;5.85;2.40;;;16.90;76.00;;;;;;5137802;27;20044;-63
2022/04/29 03:45:41;;;;;;;5.97;2.47;;;17.00;78.70;;;;;;5128073;27;20400;-63
2022/04/29 03:48:07;;;;;;;5.25;2.47;;;17.00;78.80;;;;;;5110158;27;20047;-63
2022/04/29 03:50:33;;;;;;;6.70;2.83;;;16.90;78.80;;;;;;5135742;27;20563;-63
2022/04/29 03:53:00;;;;;;;5.95;2.42;;;16.70;79.00;;;;;;5135733;27;20045;-63
2022/04/29 03:55:27;;;;;;;8.52;2.50;;;16.90;78.70;;;;;;5111140;27;20055;-63
2022/04/29 03:57:53;;;;;;;6.47;2.17;;;16.80;78.70;;;;;;5098056;28;20051;-63
2022/04/29 04:00:19;;;;;;;5.00;2.22;;;16.70;78.60;;;;;;5097751;28;20048;-63
2022/04/29 04:02:45;;;;;;;3.70;2.08;;;16.80;78.60;;;;;;5096615;28;20066;-63
2022/04/29 04:05:11;;;;;;;5.20;2.10;;;;;;;;;;5125397;27;20070;-63
2022/04/29 04:07:37;;;;;;;5.38;2.20;;;16.90;78.80;;;;;;5115620;27;20050;-63
2022/04/29 04:10:06;;;;;;;3.80;2.08;;;16.90;78.80;;;;;;5136669;27;20040;-63
2022/04/29 04:12:39;;;;;;;5.88;2.38;;;16.80;78.70;;;;;;5093186;28;20043;-63
2022/04/29 04:15:05;;;;;;;4.18;2.13;;;17.00;78.70;;;;;;5116489;27;20455;-63
2022/04/29 04:17:31;;;;;;;4.93;2.10;;;16.80;78.60;;;;;;5128348;27;20095;-63
2022/04/29 04:19:57;;;;;;;6.22;2.25;;;16.60;75.90;;;;;;5088153;28;20052;-63
2022/04/29 04:22:23;;;;;;;6.93;2.40;;;17.10;79.00;;;;;;5125876;27;20433;-63
2022/04/29 04:24:48;;;;;;;6.28;2.30;;;16.90;78.70;;;;;;5100925;27;20200;-63
2022/04/29 04:27:14;;;;;;;5.60;2.10;;;;;;;;;;5080990;27;20043;-63
2022/04/29 04:29:40;;;;;;;7.03;2.40;;;16.90;78.90;;;;;;5097825;28;20585;-62
2022/04/29 04:32:06;;;;;;;4.35;2.10;;;16.90;78.80;;;;;;5098262;27;20040;-63
2022/04/29 04:34:50;;;;;;;5.53;2.35;;;16.90;78.80;;;;;;5117175;27;20405;-64
2022/04/29 04:37:17;;;;;;;5.85;2.55;;;17.00;76.10;;;;;;5115114;28;20054;-63
2022/04/29 04:39:44;;;;;;;5.78;2.50;;;17.10;79.20;;;;;;5094841;28;20059;-64
2022/04/29 04:42:09;;;;;;;5.72;2.53;;;17.00;76.10;;;;;;5063732;28;20438;-64
2022/04/29 04:44:35;;;;;;;6.05;2.30;;;17.10;78.90;;;;;;5097206;28;20119;-63
2022/04/29 04:47:02;;;;;;;5.78;2.78;;;;;;;;;;5123028;27;20035;-62
2022/04/29 04:49:27;;;;;;;6.40;2.97;;;16.90;78.70;;;;;;5105891;27;20043;-63
2022/04/29 04:51:53;;;;;;;5.05;2.13;;;17.00;79.00;;;;;;5134635;27;20066;-63
2022/04/29 04:54:19;;;;;;;5.72;2.30;;;16.80;76.00;;;;;;5117251;27;20485;-63
2022/04/29 04:56:44;;;;;;;8.70;2.88;;;16.90;78.80;;;;;;5135756;27;20088;-63
2022/04/29 04:59:10;;;;;;;6.40;2.67;;;17.10;79.00;;;;;;5106995;27;20489;-63
2022/04/29 05:01:36;;;;;;;5.47;2.15;;;17.10;79.00;;;;;;5135716;27;20062;-63
2022/04/29 05:04:02;;;;;;;5.45;2.58;;;16.90;79.00;;;;;;5122620;27;20031;-63
2022/04/29 05:06:28;;;;;;;4.82;2.10;;;17.00;78.60;;;;;;5114707;27;20051;-63
2022/04/29 05:08:53;;;;;;;5.13;2.15;;;17.10;75.50;;;;;;5096769;28;20040;-64
2022/04/29 05:11:19;;;;;;;4.50;2.22;;;16.80;76.00;;;;;;5097722;28;20047;-63
2022/04/29 05:13:45;;;;;;;5.30;2.10;;;17.30;79.50;;;;;;5096552;28;20059;-64
2022/04/29 05:16:10;;;;;;;5.32;2.08;;;17.30;79.30;;;;;;5123634;27;20035;-63
2022/04/29 05:18:37;;;;;;;4.93;1.90;;;17.10;78.90;;;;;;5069095;28;20084;-64
2022/04/29 05:21:03;;;;;;;5.90;2.00;;;17.10;79.00;;;;;;5096939;27;20126;-63
2022/04/29 05:23:29;;;;;;;6.13;2.10;;;17.00;78.80;;;;;;5122290;27;20539;-64
2022/04/29 05:25:54;;;;;;;7.28;2.40;;;17.10;76.30;;;;;;5114910;27;20115;-63
2022/04/29 05:28:21;;;;;;;6.05;2.20;;;17.20;79.00;;;;;;5129777;27;20187;-62
2022/04/29 05:30:47;;;;;;;8.70;2.30;;;16.90;76.20;;;;;;5114456;27;20051;-64
2022/04/29 05:33:13;;;;;;;5.97;1.88;;;17.00;78.80;;;;;;5112892;27;20062;-64
2022/04/29 05:35:39;;;;;;;3.90;1.85;;;16.90;78.70;;;;;;5111986;28;20043;-63
2022/04/29 05:38:05;;;;;;;4.25;2.10;;;16.80;76.10;;;;;;5114987;27;20043;-66
2022/04/29 05:43:15;;;;;;;5.00;2.10;;;17.00;78.90;;;;;;5114411;28;20116;-64
2022/04/29 05:45:40;;;;;;;4.28;1.95;;;17.00;78.90;;;;;;5114332;28;20128;-64
2022/04/29 05:48:06;;;;;;;3.17;1.50;;;17.40;79.00;;;;;;5114174;27;20038;-65
2022/04/29 05:50:33;;;;;;;4.00;1.73;;;;;;;;;;5112869;27;20082;-64
2022/04/29 05:52:58;;;;;;;4.80;1.73;;;17.30;76.20;;;;;;5099321;28;20079;-65
2022/04/29 05:55:24;;;;;;;5.18;1.90;;;17.40;76.10;;;;;;5111504;28;20047;-63
2022/04/29 05:57:50;;;;;;;5.03;1.75;;;17.40;78.80;;;;;;5116311;27;20202;-63
2022/04/29 06:00:16;;;;;;;4.75;1.77;;;17.00;75.60;;;;;;5114992;27;20054;-63
2022/04/29 06:02:44;;;;;;;3.63;1.58;;;17.40;78.60;;;;;;5114035;28;20046;-64
2022/04/29 06:05:10;;;;;;;5.10;2.00;;;17.20;78.50;;;;;;5134378;28;20496;-63
2022/04/29 06:07:36;;;;;;;4.35;1.60;;;17.40;78.60;;;;;;5133414;28;20047;-64
2022/04/29 06:10:01;;;;;;;5.25;2.33;;;17.50;78.70;;;;;;5107737;28;20043;-64
2022/04/29 06:12:27;;;;;;;6.47;2.10;;;17.40;78.50;;;;;;5108605;28;20051;-64
2022/04/29 06:14:53;;;;;;;4.30;1.60;;;17.50;78.60;;;;;;5115939;28;20404;-65
2022/04/29 06:17:21;;;;;;;3.85;1.85;;;17.40;78.40;;;;;;5129449;28;20043;-65
2022/04/29 06:19:47;;;;;;;5.40;2.10;;;17.50;75.80;;;;;;5125479;28;20086;-63
2022/04/29 06:22:12;;;;;;;6.28;1.90;;;17.70;78.60;;;;;;5110122;28;20093;-64
2022/04/29 06:24:39;;;;;;;4.60;1.65;;;17.50;78.50;;;;;;5113416;27;20046;-64
2022/04/29 06:27:05;;;;;;;4.28;1.80;;;17.60;78.60;;;;;;5119212;27;20122;-64
2022/04/29 06:29:31;;;;;;;3.47;1.70;;;17.50;78.40;;;;;;5106761;27;20122;-65
2022/04/29 06:31:57;;;;;;;3.83;1.77;;;17.40;78.60;;;;;;5099074;27;20172;-63
2022/04/29 06:34:23;;;;;;;5.20;1.90;;;17.40;78.40;;;;;;5119726;27;20168;-68
2022/04/29 06:36:48;;;;;;;3.28;1.95;;;17.70;75.80;;;;;;5099710;28;20119;-67
2022/04/29 06:39:14;;;;;;;5.05;1.80;;;17.30;78.30;;;;;;5099324;28;20052;-67
2022/04/29 06:41:41;;;;;;;4.55;1.73;;;17.60;75.90;;;;;;5117920;28;20051;-68
2022/04/29 06:44:07;;;;;;;5.57;2.28;;;17.70;78.50;;;;;;5126826;27;21004;-70
2022/04/29 06:46:33;;;;;;;3.95;1.80;;;17.60;78.50;;;;;;5116238;27;20050;-67
2022/04/29 06:48:59;;;;;;;4.32;1.67;;;17.80;78.60;;;;;;5106516;28;20047;-68
2022/04/29 06:51:25;;;;;;;5.18;1.80;;;17.90;76.30;;;;;;5117200;28;20070;-65
2022/04/29 06:53:51;;;;;;;3.75;1.70;;;17.70;78.90;;;;;;5106102;28;20051;-68
2022/04/29 06:56:17;;;;;;;4.55;1.80;;;17.80;78.40;;;;;;5109547;27;20044;-68
2022/04/29 06:58:42;;;;;;;3.30;1.48;;;17.50;78.30;;;;;;5102696;27;20477;-69
2022/04/29 07:01:08;;;;;;;5.05;2.20;;;17.90;78.40;;;;;;5117217;27;20392;-67
2022/04/29 07:03:35;;;;;;;4.82;1.88;;;17.80;78.30;;;;;;5068148;27;20496;-68
2022/04/29 07:06:02;;;;;;;3.60;1.90;;;17.70;78.40;;;;;;5095357;28;20106;-67
2022/04/29 07:08:29;;;;;;;3.45;1.80;;;17.80;78.40;;;;;;5107043;27;20043;-68
2022/04/29 07:10:55;;;;;;;3.65;1.80;;;17.70;78.20;;;;;;5100250;27;20055;-68
2022/04/29 07:13:21;;;;;;;4.47;1.60;;;18.00;78.40;;;;;;5099152;28;20120;-68
2022/04/29 07:15:48;;;;;;;5.15;1.60;;;17.80;78.30;;;;;;5093082;27;20484;-68
2022/04/29 07:18:15;;;;;;;5.50;1.90;;;;;;;;;;5111268;27;20054;-67
2022/04/29 07:20:41;;;;;;;5.60;2.00;;;;;;;;;;5074072;27;20058;-67
2022/04/29 07:23:07;;;;;;;5.50;1.90;;;17.70;78.20;;;;;;5098668;28;20051;-68
2022/04/29 07:25:33;;;;;;;11.02;2.38;;;18.10;78.60;;;;;;5071814;28;20043;-68
2022/04/29 07:27:59;;;;;;;7.72;2.10;;;17.90;78.30;;;;;;5098477;28;20050;-68
2022/04/29 07:30:27;;;;;;;5.97;1.98;;;17.70;78.00;;;;;;5098408;28;20047;-68
2022/04/29 07:32:53;;;;;;;7.13;2.03;;;17.90;78.30;;;;;;5098762;28;20519;-68
2022/04/29 07:43:33;;;;;;;5.82;2.20;;;18.00;78.30;;;;;;5080465;28;20585;-68
2022/04/29 07:45:59;;;;;;;7.68;2.10;;;18.00;75.50;;;;;;5097538;28;20127;-68
2022/04/29 07:48:25;;;;;;;6.82;2.00;;;18.00;77.30;;;;;;5094917;28;20040;-69
2022/04/29 07:50:51;;;;;;;6.03;2.17;;;;;;;;;;5060991;28;20048;-67
2022/04/29 07:53:17;;;;;;;3.95;2.08;;;18.00;78.00;;;;;;5095130;28;20040;-68
2022/04/29 07:55:43;;;;;;;6.00;2.13;;;18.00;77.80;;;;;;5107799;28;20043;-68
2022/04/29 07:58:09;;;;;;;5.50;2.15;;;18.10;77.90;;;;;;5098378;28;20047;-69
2022/04/29 08:00:37;;;;;;;6.40;2.05;;;18.10;77.90;;;;;;5115432;28;20122;-69
2022/04/29 08:03:04;;;;;;;4.82;1.88;;;18.20;78.20;;;;;;5114748;28;20560;-69
2022/04/29 08:05:29;;;;;;;5.93;2.35;;;18.20;78.00;;;;;;5098256;28;20123;-69
2022/04/29 08:07:59;;;;;;;4.55;2.08;;;18.00;77.80;;;;;;5076200;28;20115;-69
2022/04/29 08:10:29;;;;;;;7.07;2.22;;;17.90;77.80;;;;;;5068907;28;20047;-69
2022/04/29 08:12:57;;;;;;;7.20;2.30;;;17.90;77.70;;;;;;5096587;28;20179;-69
2022/04/29 08:15:24;;;;;;;6.15;2.30;;;17.90;77.70;;;;;;5093361;28;20047;-68
2022/04/29 08:17:50;;;;;;;4.78;2.08;;;18.20;77.80;;;;;;5096266;28;20101;-69
2022/04/29 08:20:16;;;;;;;10.20;2.38;;;18.20;75.10;;;;;;5095180;28;20044;-69
2022/04/29 08:22:42;;;;;;;7.40;2.05;;;18.40;78.00;;;;;;5093772;28;20044;-68
2022/04/29 08:25:08;;;;;;;7.03;2.45;;;18.20;77.80;;;;;;5093965;28;20074;-69
2022/04/29 08:27:34;;;;;;;8.30;2.40;;;17.90;77.60;;;;;;5101897;28;20114;-64
2022/04/29 08:30:00;;;;;;;5.68;2.15;;;18.10;77.70;;;;;;5109727;28;20134;-68
2022/04/29 08:32:26;;;;;;;7.78;2.78;;;18.30;77.80;;;;;;5114494;28;20052;-68
2022/04/29 08:34:52;;;;;;;5.53;2.72;;;18.50;75.20;;;;;;5115768;28;20366;-68
2022/04/29 08:37:20;;;;;;;6.47;2.45;;;18.20;77.70;;;;;;5063454;28;20122;-68
2022/04/29 08:39:46;;;;;;;8.55;2.40;;;18.20;77.60;;;;;;5097331;28;20117;-69
2022/04/29 08:42:13;;;;;;;5.53;2.35;;;18.30;77.60;;;;;;5113134;28;20051;-69
2022/04/29 08:44:40;;;;;;;5.60;2.20;;;18.30;77.50;;;;;;5104139;28;20044;-69
2022/04/29 08:47:08;;;;;;;10.60;2.60;;;18.40;77.60;;;;;;5077080;28;20048;-69
2022/04/29 08:49:34;;;;;;;5.38;2.03;;;18.40;77.60;;;;;;5095312;28;20545;-69
2022/04/29 08:52:01;;;;;;;6.40;2.08;;;18.50;77.60;;;;;;5076566;28;20044;-69
2022/04/29 09:00:04;;;;;;;5.88;2.47;;;18.40;77.10;;;;;;5052608;28;20052;-69
2022/04/29 09:02:38;;;;;;;5.35;2.40;;;18.40;77.00;;;;;;5047330;28;20059;-68
2022/04/29 09:05:09;;;;;;;5.70;2.53;;;18.70;73.90;;;;;;5019381;28;20472;-68
2022/04/29 09:07:54;;;;;;;5.38;2.20;;;18.50;77.00;;;;;;5020223;28;20053;-69
2022/04/29 09:10:25;;;;;;;6.18;2.13;;;18.50;76.90;;;;;;5068691;28;20040;-64
2022/04/29 09:12:52;;;;;;;5.50;2.33;;;18.40;76.90;;;;;;5035370;28;20056;-64
2022/04/29 09:15:18;;;;;;;4.70;2.40;;;18.40;76.90;;;;;;5064469;28;20123;-63
2022/04/29 09:17:45;;;;;;;4.68;2.20;;;18.50;76.90;;;;;;5037473;28;20064;-64
2022/04/29 09:20:20;;;;;;;6.38;2.17;;;18.50;77.00;;;;;;5071590;28;20063;-64
2022/04/29 09:22:47;;;;;;;6.30;2.25;;;18.60;73.90;;;;;;5071451;28;20044;-63
2022/04/29 09:25:13;;;;;;;5.03;2.50;;;18.70;77.10;;;;;;5038378;28;20063;-63
2022/04/29 09:27:55;;;;;;;5.07;2.50;;;18.20;76.80;;;;;;5034111;28;20135;-64
2022/04/29 09:30:40;;;;;;;6.07;2.53;;;18.50;75.90;;;;;;5035236;28;20175;-65
2022/04/29 09:33:27;;;;;;;8.90;2.58;;;18.50;76.90;;;;;;5005494;28;20044;-64
2022/04/29 09:35:53;;;;;;;3.85;2.20;;;18.70;74.60;;;;;;5105878;28;20048;-63
2022/04/29 09:41:04;;;;;;;5.45;2.30;;;18.70;76.90;;;;;;5113391;28;20050;-64
2022/04/29 09:43:46;;;;;;;5.20;2.13;;;18.50;76.70;;;;;;5093279;28;20047;-63
2022/04/29 09:46:19;;;;;;;4.45;2.53;;;18.50;76.60;;;;;;5102999;28;20076;-64
2022/04/29 09:48:52;;;;;;;6.45;2.70;;;18.40;76.60;;;;;;5114254;28;20036;-69
2022/04/29 09:51:46;;;;;;;5.93;2.50;;;18.50;76.60;;;;;;5112439;28;20055;-69
2022/04/29 09:54:25;;;;;;;5.47;2.70;;;18.50;76.50;;;;;;5086350;28;20107;-63
2022/04/29 09:57:18;;;;;;;7.43;2.40;;;18.60;76.70;;;;;;5065675;28;20067;-69
2022/04/29 09:59:47;;;;;;;6.35;2.63;;;18.50;76.60;;;;;;5095945;28;20052;-69
2022/04/29 10:02:19;;;;;;;8.00;2.90;;;18.80;76.80;;;;;;5110385;28;20520;-69
2022/04/29 10:04:45;;;;;;;4.63;2.35;;;18.70;76.70;;;;;;5102090;28;20036;-68
2022/04/29 10:07:13;;;;;;;6.68;2.72;;;18.80;76.20;;;;;;5113964;28;20400;-69
2022/04/29 10:09:40;;;;;;;4.50;2.50;;;18.80;76.70;;;;;;5112639;28;20187;-69
2022/04/29 10:12:15;;;;;;;5.80;2.50;;;18.60;76.60;;;;;;5108035;28;20063;-70
2022/04/29 10:14:44;;;;;;;4.75;2.53;;;18.80;76.70;;;;;;5112561;28;20124;-69
2022/04/29 10:22:52;;;;;;;6.63;2.40;;;18.50;76.50;;;;;;5111470;28;20130;-63
2022/04/29 10:25:19;;;;;;;6.13;2.70;;;18.60;76.60;;;;;;5111938;28;20103;-69
2022/04/29 10:27:45;;;;;;;5.45;2.63;;;18.40;76.40;;;;;;5073631;28;20039;-69
2022/04/29 10:30:11;;;;;;;6.50;2.72;;;18.50;76.50;;;;;;5091860;28;20051;-69
2022/04/29 10:33:03;;;;;;;6.03;2.67;;;18.50;76.60;;;;;;5075646;28;20094;-69
2022/04/29 10:35:50;;;;;;;5.72;2.72;;;18.60;76.70;;;;;;5075458;28;20374;-69
2022/04/29 10:38:17;;;;;;;5.32;2.60;;;18.50;76.50;;;;;;5096165;28;20089;-70
2022/04/29 10:40:44;;;;;;;4.68;2.30;;;18.80;73.90;;;;;;5112091;28;20058;-67
2022/04/29 10:43:10;;;;;;;4.70;2.67;;;18.40;73.10;;;;;;5090367;28;20464;-69
2022/04/29 10:46:05;;;;;;;6.13;2.50;;;18.50;73.70;;;;;;5092406;28;20044;-69
2022/04/29 10:48:38;;;;;;;4.93;2.60;;;18.70;76.60;;;;;;5092992;28;20056;-69
2022/04/29 10:51:10;;;;;;;5.68;2.70;;;18.60;76.50;;;;;;5091654;28;20394;-69
2022/04/29 10:53:57;;;;;;;4.88;2.60;;;18.60;76.70;;;;;;5091470;28;20052;-68
2022/04/29 10:56:31;;;;;;;5.28;2.80;;;18.60;76.40;;;;;;5107914;28;20105;-68
2022/04/29 10:59:09;;;;;;;5.28;2.50;;;18.50;76.40;;;;;;5108071;28;20044;-63
2022/04/29 11:01:36;;;;;;;6.25;2.83;;;18.50;76.40;;;;;;5108733;28;20079;-63
2022/04/29 11:04:31;;;;;;;6.38;2.97;;;18.60;76.50;;;;;;5111714;28;20055;-63
2022/04/29 11:06:57;;;;;;;6.07;3.13;;;18.40;76.50;;;;;;5112370;28;20481;-65
2022/04/29 11:09:48;;;;;;;7.20;2.75;;;18.70;76.50;;;;;;5110604;28;20056;-63
2022/04/29 11:12:37;;;;;;;6.40;2.80;;;18.30;76.30;;;;;;5098405;28;20079;-66
2022/04/29 11:15:16;;;;;;;5.70;2.97;;;18.40;73.80;;;;;;5062453;28;20052;-63
2022/04/29 11:17:42;;;;;;;5.72;2.80;;;;;;;;;;5096056;28;20375;-62
2022/04/29 11:20:19;;;;;;;4.28;2.70;;;18.50;77.10;;;;;;5094788;28;20098;-63
2022/04/29 11:25:57;;;;;;;6.35;2.97;;;18.50;71.80;;;;;;5112997;28;20099;-64
2022/04/29 11:28:24;;;;;;;7.90;3.72;;;18.60;76.80;;;;;;5108521;28;20363;-63
2022/04/29 11:30:50;;;;;;;8.65;3.30;;;18.40;76.80;;;;;;5097122;27;20133;-62
2022/04/29 11:33:25;;;;;;;8.80;3.00;;;18.60;76.90;;;;;;5096185;28;20044;-63
2022/04/29 11:36:10;;;;;;;10.18;3.33;;;18.20;74.60;;;;;;5115450;28;20051;-63
2022/04/29 11:38:44;;;;;;;7.40;3.15;;;18.50;76.10;;;;;;5105446;27;20389;-66
2022/04/29 11:41:20;;;;;;;6.70;3.00;;;18.60;76.80;;;;;;5119453;27;20047;-66
2022/04/29 11:43:47;;;;;;;9.15;3.17;;;18.10;73.90;;;;;;5112490;28;20040;-63
2022/04/29 11:46:13;;;;;;;7.00;3.20;;;18.60;76.80;;;;;;5098077;28;20055;-66
2022/04/29 11:48:39;;;;;;;9.02;3.17;;;18.50;76.70;;;;;;5121617;27;20123;-62
2022/04/29 11:51:05;;;;;;;9.32;3.20;;;;;;;;;;5098198;27;20110;-68
2022/04/29 11:53:32;;;;;;;7.97;3.53;;;18.50;76.70;;;;;;5093124;28;20050;-68
2022/04/29 11:55:57;;;;;;;7.45;3.10;;;18.50;76.60;;;;;;5081424;27;20073;-69
2022/04/29 11:58:28;;;;;;;6.35;2.95;;;18.20;76.30;;;;;;5097624;28;20039;-70
2022/04/29 12:00:54;;;;;;;4.85;2.75;;;18.50;76.40;;;;;;5089373;27;20075;-69
2022/04/29 12:03:24;;;;;;;6.60;2.90;;;18.60;76.30;;;;;;5113941;27;20085;-67
2022/04/29 12:05:50;;;;;;;9.48;3.13;;;18.60;76.40;;;;;;5102163;28;20058;-67
2022/04/29 12:08:17;;;;;;;9.40;3.35;;;18.40;76.10;;;;;;5083013;28;20047;-68
2022/04/29 12:10:47;;;;;;;7.22;2.58;;;18.60;76.20;;;;;;5097494;27;20112;-68
2022/04/29 12:13:13;;;;;;;5.82;2.95;;;18.40;76.10;;;;;;5079954;28;20039;-68
2022/04/29 12:15:40;;;;;;;8.77;3.05;;;18.60;76.30;;;;;;5092911;28;20054;-68
2022/04/29 12:18:08;;;;;;;7.03;3.22;;;18.60;76.30;;;;;;5097394;28;20055;-68
2022/04/29 12:20:34;;;;;;;6.65;2.70;;;18.60;76.20;;;;;;5080543;28;20082;-68
2022/04/29 12:23:23;;;;;;;6.65;2.78;;;18.70;76.40;;;;;;5079778;28;20071;-68
2022/04/29 12:25:49;;;;;;;7.43;3.03;;;18.30;75.90;;;;;;5088734;28;20052;-68
2022/04/29 12:28:15;;;;;;;8.45;2.83;;;;;;;;;;5080368;28;20043;-67
2022/04/29 12:36:54;;;;;;;8.30;4.25;;;18.60;73.30;;;;;;5115676;28;20055;-68
2022/04/29 12:39:24;;;;;;;8.60;4.82;;;18.60;72.90;;;;;;5096990;28;20059;-68
2022/04/29 12:41:57;;;;;;;8.02;3.70;;;18.60;75.90;;;;;;5081283;27;20059;-68
2022/04/29 12:47:24;;;;;;;7.35;3.30;;;18.80;75.80;;;;;;5115168;28;20059;-68
2022/04/29 12:49:51;;;;;;;7.82;3.00;;;18.30;75.40;;;;;;5080304;28;20496;-68
2022/04/29 12:52:17;;;;;;;7.15;2.80;;;18.80;75.70;;;;;;5084623;28;20389;-69
2022/04/29 12:54:43;;;;;;;5.60;3.10;;;18.70;75.70;;;;;;5092100;28;20051;-69
2022/04/29 12:57:09;;;;;;;8.13;3.10;;;18.50;75.50;;;;;;5129371;27;20047;-68
2022/04/29 12:59:37;;;;;;;5.45;2.95;;;18.70;75.50;;;;;;5096764;27;20111;-68
2022/04/29 13:02:06;;;;;;;5.20;2.60;;;18.80;75.60;;;;;;5133537;27;20103;-69
2022/04/29 13:04:32;;;;;;;4.93;2.88;;;;;;;;;;5096235;27;20177;-66
2022/04/29 13:06:59;;;;;;;6.25;2.75;;;18.60;75.50;;;;;;5094431;28;20055;-68
2022/04/29 13:09:25;;;;;;;4.75;2.65;;;18.70;75.50;;;;;;5115004;28;20032;-68
2022/04/29 13:11:52;;;;;;;5.63;2.60;;;18.40;75.30;;;;;;5079502;28;20043;-68
2022/04/29 13:14:17;;;;;;;5.60;2.72;;;18.70;74.10;;;;;;5117847;27;20024;-68
2022/04/29 13:16:44;;;;;;;7.43;2.75;;;18.70;75.40;;;;;;5080025;28;20489;-66
2022/04/29 13:19:13;;;;;;;4.35;2.40;;;18.80;75.40;;;;;;5081878;28;20055;-66
2022/04/29 13:21:39;;;;;;;6.85;2.75;;;;;;;;;;5107417;27;20479;-66
2022/04/29 13:24:05;;;;;;;5.32;2.63;;;18.40;75.20;;;;;;5134174;27;20038;-67
2022/04/29 13:26:32;;;;;;;6.32;2.72;;;18.70;75.30;;;;;;5114116;27;20057;-68
2022/04/29 13:28:57;;;;;;;6.13;2.47;;;18.70;75.30;;;;;;5080381;27;20051;-68
2022/04/29 13:31:23;;;;;;;6.03;2.90;;;18.50;75.40;;;;;;5063514;28;20460;-67
2022/04/29 13:33:49;;;;;;;4.38;2.33;;;;;;;;;;5063575;27;20077;-67